sensor_id;sensor_type;location;lat;lon;timestamp;pressure;altitude;pressure_sealevel;temperature;humidity
5595;BME280;1003;48.002;7.788;2023-11-22T00:01:20;100479.84;;;7.72;100.00
5595;BME280;1003;48.002;7.788;2023-11-22T00:03:47;100483.16;;;7.71;100.00
5595;BME280;1003;48.002;7.788;2023-11-22T00:06:14;100485.69;;;7.73;100.00
5595;BME280;1003;48.002;7.788;2023-11-22T00:08:41;100485.69;;;7.73;100.00
5595;BME280;1003;48.002;7.788;2023-11-22T00:11:08;100485.72;;;7.74;100.00
5595;BME280;1003;48.002;7.788;2023-11-22T00:13:35;100477.34;;;7.72;100.00
5595;BME280;1003;48.002;7.788;2023-11-22T00:16:04;100495.00;;;7.78;100.00
5595;BME280;1003;48.002;7.788;2023-11-22T00:18:34;100484.94;;;7.75;100.00
5595;BME280;1003;48.002;7.788;2023-11-22T00:21:03;100482.38;;;7.74;100.00
5595;BME280;1003;48.002;7.788;2023-11-22T00:23:30;100482.25;;;7.69;100.00
5595;BME280;1003;48.002;7.788;2023-11-22T00:25:58;100478.06;;;7.68;100.00
5595;BME280;1003;48.002;7.788;2023-11-22T00:28:25;100483.06;;;7.67;100.00
5595;BME280;1003;48.002;7.788;2023-11-22T00:30:52;100483.69;;;7.58;100.00
5595;BME280;1003;48.002;7.788;2023-11-22T00:33:20;100489.59;;;7.60;100.00
5595;BME280;1003;48.002;7.788;2023-11-22T00:35:47;100488.66;;;7.56;100.00
5595;BME280;1003;48.002;7.788;2023-11-22T00:38:14;100491.13;;;7.55;100.00
5595;BME280;1003;48.002;7.788;2023-11-22T00:40:41;100504.53;;;7.58;100.00
5595;BME280;1003;48.002;7.788;2023-11-22T00:43:08;100496.97;;;7.55;100.00
5595;BME280;1003;48.002;7.788;2023-11-22T00:45:35;100507.13;;;7.61;100.00
5595;BME280;1003;48.002;7.788;2023-11-22T00:48:02;100505.66;;;7.70;100.00
5595;BME280;1003;48.002;7.788;2023-11-22T00:50:30;100497.97;;;7.63;100.00
5595;BME280;1003;48.002;7.788;2023-11-22T00:52:57;100496.28;;;7.61;100.00
5595;BME280;1003;48.002;7.788;2023-11-22T00:55:24;100499.63;;;7.63;100.00
5595;BME280;1003;48.002;7.788;2023-11-22T00:57:50;100503.03;;;7.65;100.00
5595;BME280;1003;48.002;7.788;2023-11-22T01:00:18;100502.22;;;7.66;100.00
5595;BME280;1003;48.002;7.788;2023-11-22T01:02:44;100506.41;;;7.67;100.00
5595;BME280;1003;48.002;7.788;2023-11-22T01:05:11;100504.75;;;7.68;100.00
5595;BME280;1003;48.002;7.788;2023-11-22T01:07:41;100505.56;;;7.67;100.00
5595;BME280;1003;48.002;7.788;2023-11-22T01:10:09;100507.22;;;7.65;100.00
5595;BME280;1003;48.002;7.788;2023-11-22T01:12:36;100511.41;;;7.66;100.00
5595;BME280;1003;48.002;7.788;2023-11-22T01:15:04;100502.03;;;7.58;100.00
5595;BME280;1003;48.002;7.788;2023-11-22T01:17:31;100506.31;;;7.62;100.00
5595;BME280;1003;48.002;7.788;2023-11-22T01:19:58;100515.56;;;7.65;100.00
5595;BME280;1003;48.002;7.788;2023-11-22T01:22:25;100512.09;;;7.60;100.00
5595;BME280;1003;48.002;7.788;2023-11-22T01:24:54;100507.97;;;7.62;100.00
5595;BME280;1003;48.002;7.788;2023-11-22T01:27:21;100499.59;;;7.60;100.00
5595;BME280;1003;48.002;7.788;2023-11-22T01:29:49;100502.00;;;7.57;100.00
5595;BME280;1003;48.002;7.788;2023-11-22T01:32:16;100501.25;;;7.59;100.00
5595;BME280;1003;48.002;7.788;2023-11-22T01:34:44;100506.97;;;7.54;100.00
5595;BME280;1003;48.002;7.788;2023-11-22T01:37:11;100505.31;;;7.56;100.00
5595;BME280;1003;48.002;7.788;2023-11-22T01:39:40;100496.25;;;7.59;100.00
5595;BME280;1003;48.002;7.788;2023-11-22T01:42:08;100493.66;;;7.56;100.00
5595;BME280;1003;48.002;7.788;2023-11-22T01:44:35;100503.63;;;7.55;100.00
5595;BME280;1003;48.002;7.788;2023-11-22T01:47:05;100494.47;;;7.55;100.00
5595;BME280;1003;48.002;7.788;2023-11-22T01:49:33;100501.28;;;7.61;100.00
5595;BME280;1003;48.002;7.788;2023-11-22T01:52:02;100493.78;;;7.61;100.00
5595;BME280;1003;48.002;7.788;2023-11-22T01:54:31;100492.09;;;7.61;100.00
5595;BME280;1003;48.002;7.788;2023-11-22T01:56:58;100494.63;;;7.63;100.00
5595;BME280;1003;48.002;7.788;2023-11-22T01:59:29;100490.41;;;7.60;100.00
5595;BME280;1003;48.002;7.788;2023-11-22T02:01:57;100495.41;;;7.59;100.00
5595;BME280;1003;48.002;7.788;2023-11-22T02:04:24;100490.53;;;7.65;100.00
5595;BME280;1003;48.002;7.788;2023-11-22T02:06:51;100495.56;;;7.67;100.00
5595;BME280;1003;48.002;7.788;2023-11-22T02:09:18;100496.28;;;7.61;100.00
5595;BME280;1003;48.002;7.788;2023-11-22T02:11:45;100492.81;;;7.56;100.00
5595;BME280;1003;48.002;7.788;2023-11-22T02:14:15;100497.19;;;7.65;100.00
5595;BME280;1003;48.002;7.788;2023-11-22T02:16:43;100485.38;;;7.59;100.00
5595;BME280;1003;48.002;7.788;2023-11-22T02:19:16;100492.19;;;7.65;100.00
5595;BME280;1003;48.002;7.788;2023-11-22T02:21:44;100497.25;;;7.68;100.00
5595;BME280;1003;48.002;7.788;2023-11-22T02:24:12;100493.81;;;7.64;100.00
5595;BME280;1003;48.002;7.788;2023-11-22T02:26:44;100503.81;;;7.62;100.00
5595;BME280;1003;48.002;7.788;2023-11-22T02:29:11;100503.91;;;7.67;100.00
5595;BME280;1003;48.002;7.788;2023-11-22T02:31:40;100510.56;;;7.65;100.00
5595;BME280;1003;48.002;7.788;2023-11-22T02:34:08;100526.19;;;7.56;100.00
5595;BME280;1003;48.002;7.788;2023-11-22T02:36:35;100516.00;;;7.49;100.00
5595;BME280;1003;48.002;7.788;2023-11-22T02:39:02;100518.28;;;7.40;100.00
5595;BME280;1003;48.002;7.788;2023-11-22T02:41:31;100513.13;;;7.33;100.00
5595;BME280;1003;48.002;7.788;2023-11-22T02:43:58;100506.88;;;7.16;100.00
5595;BME280;1003;48.002;7.788;2023-11-22T02:46:25;100492.34;;;7.03;100.00
5595;BME280;1003;48.002;7.788;2023-11-22T02:48:52;100494.69;;;6.97;100.00
5595;BME280;1003;48.002;7.788;2023-11-22T02:51:20;100508.88;;;6.98;100.00
5595;BME280;1003;48.002;7.788;2023-11-22T02:53:48;100480.00;;;6.76;100.00
5595;BME280;1003;48.002;7.788;2023-11-22T02:56:15;100481.50;;;6.69;100.00
5595;BME280;1003;48.002;7.788;2023-11-22T02:58:44;100481.22;;;6.58;100.00
5595;BME280;1003;48.002;7.788;2023-11-22T03:01:11;100477.84;;;6.56;100.00
5595;BME280;1003;48.002;7.788;2023-11-22T03:03:38;100475.88;;;6.46;100.00
5595;BME280;1003;48.002;7.788;2023-11-22T03:06:06;100477.91;;;6.29;100.00
5595;BME280;1003;48.002;7.788;2023-11-22T03:08:33;100471.22;;;6.28;100.00
5595;BME280;1003;48.002;7.788;2023-11-22T03:11:00;100471.84;;;6.21;100.00
5595;BME280;1003;48.002;7.788;2023-11-22T03:13:27;100473.53;;;6.22;100.00
5595;BME280;1003;48.002;7.788;2023-11-22T03:15:56;100473.41;;;6.18;100.00
5595;BME280;1003;48.002;7.788;2023-11-22T03:18:23;100475.69;;;6.10;100.00
5595;BME280;1003;48.002;7.788;2023-11-22T03:20:51;100472.25;;;6.07;100.00
5595;BME280;1003;48.002;7.788;2023-11-22T03:23:20;100477.84;;;5.98;100.00
5595;BME280;1003;48.002;7.788;2023-11-22T03:25:47;100470.91;;;5.89;100.00
5595;BME280;1003;48.002;7.788;2023-11-22T03:28:14;100472.28;;;5.81;100.00
5595;BME280;1003;48.002;7.788;2023-11-22T03:30:41;100470.47;;;5.75;100.00
5595;BME280;1003;48.002;7.788;2023-11-22T03:33:09;100480.34;;;5.71;100.00
5595;BME280;1003;48.002;7.788;2023-11-22T03:35:36;100467.53;;;5.60;100.00
5595;BME280;1003;48.002;7.788;2023-11-22T03:38:03;100463.22;;;5.55;100.00
5595;BME280;1003;48.002;7.788;2023-11-22T03:40:30;100468.13;;;5.53;100.00
5595;BME280;1003;48.002;7.788;2023-11-22T03:42:57;100461.22;;;5.44;100.00
5595;BME280;1003;48.002;7.788;2023-11-22T03:45:24;100453.59;;;5.40;100.00
5595;BME280;1003;48.002;7.788;2023-11-22T03:47:51;100461.72;;;5.34;100.00
5595;BME280;1003;48.002;7.788;2023-11-22T03:50:20;100457.34;;;5.27;100.00
5595;BME280;1003;48.002;7.788;2023-11-22T03:52:47;100463.63;;;5.16;100.00
5595;BME280;1003;48.002;7.788;2023-11-22T03:55:14;100454.81;;;5.00;100.00
5595;BME280;1003;48.002;7.788;2023-11-22T03:57:41;100453.72;;;4.92;100.00
5595;BME280;1003;48.002;7.788;2023-11-22T04:00:09;100456.69;;;4.82;100.00
5595;BME280;1003;48.002;7.788;2023-11-22T04:02:38;100451.47;;;4.74;100.00
5595;BME280;1003;48.002;7.788;2023-11-22T04:05:06;100453.78;;;4.69;100.00
5595;BME280;1003;48.002;7.788;2023-11-22T04:07:35;100448.75;;;4.68;100.00
5595;BME280;1003;48.002;7.788;2023-11-22T04:10:04;100460.31;;;4.66;100.00
5595;BME280;1003;48.002;7.788;2023-11-22T04:12:31;100458.41;;;4.59;100.00
5595;BME280;1003;48.002;7.788;2023-11-22T04:14:59;100472.38;;;4.55;100.00
5595;BME280;1003;48.002;7.788;2023-11-22T04:17:25;100494.13;;;4.59;100.00
5595;BME280;1003;48.002;7.788;2023-11-22T04:19:52;100492.94;;;4.50;100.00
5595;BME280;1003;48.002;7.788;2023-11-22T04:22:19;100491.03;;;4.42;100.00
5595;BME280;1003;48.002;7.788;2023-11-22T04:24:47;100505.13;;;4.42;100.00
5595;BME280;1003;48.002;7.788;2023-11-22T04:27:14;100510.94;;;4.42;100.00
5595;BME280;1003;48.002;7.788;2023-11-22T04:29:41;100525.97;;;4.45;100.00
5595;BME280;1003;48.002;7.788;2023-11-22T04:32:08;100524.88;;;4.37;100.00
5595;BME280;1003;48.002;7.788;2023-11-22T04:34:35;100530.91;;;4.44;100.00
5595;BME280;1003;48.002;7.788;2023-11-22T04:37:03;100525.75;;;4.39;100.00
5595;BME280;1003;48.002;7.788;2023-11-22T04:39:31;100528.16;;;4.36;100.00
5595;BME280;1003;48.002;7.788;2023-11-22T04:41:59;100526.38;;;4.34;100.00
5595;BME280;1003;48.002;7.788;2023-11-22T04:44:26;100537.13;;;4.33;100.00
5595;BME280;1003;48.002;7.788;2023-11-22T04:46:53;100529.63;;;4.31;100.00
5595;BME280;1003;48.002;7.788;2023-11-22T04:49:19;100541.09;;;4.28;100.00
5595;BME280;1003;48.002;7.788;2023-11-22T04:51:46;100551.22;;;4.32;100.00
5595;BME280;1003;48.002;7.788;2023-11-22T04:54:15;100557.41;;;4.42;100.00
5595;BME280;1003;48.002;7.788;2023-11-22T04:56:42;100567.09;;;4.36;100.00
5595;BME280;1003;48.002;7.788;2023-11-22T04:59:11;100566.34;;;4.37;100.00
5595;BME280;1003;48.002;7.788;2023-11-22T05:01:38;100571.09;;;4.31;100.00
5595;BME280;1003;48.002;7.788;2023-11-22T05:04:05;100572.81;;;4.33;100.00
5595;BME280;1003;48.002;7.788;2023-11-22T05:06:32;100583.69;;;4.35;100.00
5595;BME280;1003;48.002;7.788;2023-11-22T05:08:59;100584.44;;;4.33;100.00
5595;BME280;1003;48.002;7.788;2023-11-22T05:11:26;100595.91;;;4.29;100.00
5595;BME280;1003;48.002;7.788;2023-11-22T05:13:53;100607.53;;;4.30;100.00
5595;BME280;1003;48.002;7.788;2023-11-22T05:16:21;100619.31;;;4.34;100.00
5595;BME280;1003;48.002;7.788;2023-11-22T05:18:49;100627.72;;;4.36;100.00
5595;BME280;1003;48.002;7.788;2023-11-22T05:21:16;100632.75;;;4.38;100.00
5595;BME280;1003;48.002;7.788;2023-11-22T05:23:43;100628.75;;;4.41;100.00
5595;BME280;1003;48.002;7.788;2023-11-22T05:26:10;100630.97;;;4.35;100.00
5595;BME280;1003;48.002;7.788;2023-11-22T05:28:37;100631.09;;;4.38;100.00
5595;BME280;1003;48.002;7.788;2023-11-22T05:31:04;100623.41;;;4.32;100.00
5595;BME280;1003;48.002;7.788;2023-11-22T05:33:32;100620.06;;;4.32;100.00
5595;BME280;1003;48.002;7.788;2023-11-22T05:35:59;100621.72;;;4.31;100.00
5595;BME280;1003;48.002;7.788;2023-11-22T05:38:26;100619.97;;;4.30;100.00
5595;BME280;1003;48.002;7.788;2023-11-22T05:40:53;100615.00;;;4.30;100.00
5595;BME280;1003;48.002;7.788;2023-11-22T05:43:20;100606.06;;;4.35;100.00
5595;BME280;1003;48.002;7.788;2023-11-22T05:45:51;100592.50;;;4.27;100.00
5595;BME280;1003;48.002;7.788;2023-11-22T05:48:18;100589.78;;;4.21;100.00
5595;BME280;1003;48.002;7.788;2023-11-22T05:50:48;100593.19;;;4.23;100.00
5595;BME280;1003;48.002;7.788;2023-11-22T05:53:15;100581.53;;;4.22;100.00
5595;BME280;1003;48.002;7.788;2023-11-22T05:55:47;100570.41;;;4.14;100.00
5595;BME280;1003;48.002;7.788;2023-11-22T05:58:16;100565.44;;;4.14;100.00
5595;BME280;1003;48.002;7.788;2023-11-22T06:00:43;100563.03;;;4.15;100.00
5595;BME280;1003;48.002;7.788;2023-11-22T06:03:12;100560.47;;;4.14;100.00
5595;BME280;1003;48.002;7.788;2023-11-22T06:05:39;100558.69;;;4.10;100.00
5595;BME280;1003;48.002;7.788;2023-11-22T06:08:08;100553.56;;;4.07;100.00
5595;BME280;1003;48.002;7.788;2023-11-22T06:10:35;100542.72;;;4.05;100.00
5595;BME280;1003;48.002;7.788;2023-11-22T06:13:03;100524.38;;;4.03;100.00
5595;BME280;1003;48.002;7.788;2023-11-22T06:15:30;100515.19;;;4.00;100.00
5595;BME280;1003;48.002;7.788;2023-11-22T06:17:57;100504.16;;;3.93;100.00
5595;BME280;1003;48.002;7.788;2023-11-22T06:20:24;100495.91;;;3.94;100.00
5595;BME280;1003;48.002;7.788;2023-11-22T06:22:52;100502.63;;;3.97;100.00
5595;BME280;1003;48.002;7.788;2023-11-22T06:25:21;100483.50;;;3.96;100.00
5595;BME280;1003;48.002;7.788;2023-11-22T06:27:48;100474.53;;;4.00;100.00
5595;BME280;1003;48.002;7.788;2023-11-22T06:30:15;100448.47;;;3.90;100.00
5595;BME280;1003;48.002;7.788;2023-11-22T06:32:42;100451.13;;;3.94;100.00
5595;BME280;1003;48.002;7.788;2023-11-22T06:35:10;100429.53;;;3.93;100.00
5595;BME280;1003;48.002;7.788;2023-11-22T06:37:40;100435.16;;;3.88;100.00
5595;BME280;1003;48.002;7.788;2023-11-22T06:40:08;100416.09;;;3.88;100.00
5595;BME280;1003;48.002;7.788;2023-11-22T06:42:36;100421.28;;;3.94;100.00
5595;BME280;1003;48.002;7.788;2023-11-22T06:45:05;100417.16;;;3.95;100.00
5595;BME280;1003;48.002;7.788;2023-11-22T06:47:35;100401.94;;;3.87;100.00
5595;BME280;1003;48.002;7.788;2023-11-22T06:50:05;100403.13;;;3.97;100.00
5595;BME280;1003;48.002;7.788;2023-11-22T06:52:34;100387.13;;;3.90;100.00
5595;BME280;1003;48.002;7.788;2023-11-22T06:55:02;100384.03;;;3.96;100.00
5595;BME280;1003;48.002;7.788;2023-11-22T06:57:29;100372.91;;;3.86;100.00
5595;BME280;1003;48.002;7.788;2023-11-22T06:59:57;100367.75;;;3.82;100.00
5595;BME280;1003;48.002;7.788;2023-11-22T07:02:24;100363.69;;;3.84;100.00
5595;BME280;1003;48.002;7.788;2023-11-22T07:04:51;100363.34;;;3.75;100.00
5595;BME280;1003;48.002;7.788;2023-11-22T07:07:18;100369.84;;;3.71;100.00
5595;BME280;1003;48.002;7.788;2023-11-22T07:09:45;100350.31;;;3.58;100.00
5595;BME280;1003;48.002;7.788;2023-11-22T07:12:12;100335.97;;;3.51;100.00
5595;BME280;1003;48.002;7.788;2023-11-22T07:14:39;100353.16;;;3.45;100.00
5595;BME280;1003;48.002;7.788;2023-11-22T07:17:10;100343.66;;;3.34;100.00
5595;BME280;1003;48.002;7.788;2023-11-22T07:19:37;100345.97;;;3.30;100.00
5595;BME280;1003;48.002;7.788;2023-11-22T07:22:04;100352.44;;;3.26;100.00
5595;BME280;1003;48.002;7.788;2023-11-22T07:24:41;100353.38;;;3.28;100.00
5595;BME280;1003;48.002;7.788;2023-11-22T07:27:10;100353.94;;;3.23;100.00
5595;BME280;1003;48.002;7.788;2023-11-22T07:29:39;100356.03;;;3.12;100.00
5595;BME280;1003;48.002;7.788;2023-11-22T07:32:07;100365.84;;;3.09;100.00
5595;BME280;1003;48.002;7.788;2023-11-22T07:34:37;100371.53;;;3.06;100.00
5595;BME280;1003;48.002;7.788;2023-11-22T07:37:05;100312.81;;;3.07;100.00
5595;BME280;1003;48.002;7.788;2023-11-22T07:39:33;100313.50;;;3.04;100.00
5595;BME280;1003;48.002;7.788;2023-11-22T07:42:01;100318.72;;;2.89;100.00
5595;BME280;1003;48.002;7.788;2023-11-22T07:44:28;100317.84;;;2.87;100.00
5595;BME280;1003;48.002;7.788;2023-11-22T07:46:58;100317.09;;;2.90;100.00
5595;BME280;1003;48.002;7.788;2023-11-22T07:49:26;100314.63;;;2.90;100.00
5595;BME280;1003;48.002;7.788;2023-11-22T07:51:54;100334.56;;;2.92;100.00
5595;BME280;1003;48.002;7.788;2023-11-22T07:54:22;100326.31;;;2.93;100.00
5595;BME280;1003;48.002;7.788;2023-11-22T07:56:49;100330.63;;;2.97;100.00
5595;BME280;1003;48.002;7.788;2023-11-22T07:59:18;100331.38;;;2.96;100.00
5595;BME280;1003;48.002;7.788;2023-11-22T08:01:45;100339.16;;;3.03;100.00
5595;BME280;1003;48.002;7.788;2023-11-22T08:04:16;100333.94;;;2.97;100.00
5595;BME280;1003;48.002;7.788;2023-11-22T08:06:43;100337.50;;;3.04;100.00
5595;BME280;1003;48.002;7.788;2023-11-22T08:09:12;100337.47;;;3.02;100.00
5595;BME280;1003;48.002;7.788;2023-11-22T08:11:42;100348.56;;;3.12;100.00
5595;BME280;1003;48.002;7.788;2023-11-22T08:14:09;100345.97;;;3.09;100.00
5595;BME280;1003;48.002;7.788;2023-11-22T08:16:38;100352.69;;;3.11;100.00
5595;BME280;1003;48.002;7.788;2023-11-22T08:19:08;100346.25;;;3.16;100.00
5595;BME280;1003;48.002;7.788;2023-11-22T08:21:35;100347.06;;;3.15;100.00
5595;BME280;1003;48.002;7.788;2023-11-22T08:24:03;100336.94;;;3.11;100.00
5595;BME280;1003;48.002;7.788;2023-11-22T08:26:31;100351.22;;;3.16;100.00
5595;BME280;1003;48.002;7.788;2023-11-22T08:28:58;100342.72;;;3.10;100.00
5595;BME280;1003;48.002;7.788;2023-11-22T08:31:25;100339.59;;;3.15;100.00
5595;BME280;1003;48.002;7.788;2023-11-22T08:33:52;100338.59;;;3.10;100.00
5595;BME280;1003;48.002;7.788;2023-11-22T08:36:18;100345.56;;;3.19;100.00
5595;BME280;1003;48.002;7.788;2023-11-22T08:38:45;100338.31;;;3.25;100.00
5595;BME280;1003;48.002;7.788;2023-11-22T08:41:12;100343.56;;;3.33;100.00
5595;BME280;1003;48.002;7.788;2023-11-22T08:43:41;100345.97;;;3.30;100.00
5595;BME280;1003;48.002;7.788;2023-11-22T08:46:08;100333.00;;;3.38;100.00
5595;BME280;1003;48.002;7.788;2023-11-22T08:48:35;100344.94;;;3.47;100.00
5595;BME280;1003;48.002;7.788;2023-11-22T08:51:03;100345.34;;;3.58;100.00
5595;BME280;1003;48.002;7.788;2023-11-22T08:53:30;100328.00;;;3.59;100.00
5595;BME280;1003;48.002;7.788;2023-11-22T08:55:57;100332.47;;;3.68;100.00
5595;BME280;1003;48.002;7.788;2023-11-22T08:58:24;100325.06;;;3.69;100.00
5595;BME280;1003;48.002;7.788;2023-11-22T09:00:54;100318.97;;;3.85;100.00
5595;BME280;1003;48.002;7.788;2023-11-22T09:03:23;100325.34;;;3.77;100.00
5595;BME280;1003;48.002;7.788;2023-11-22T09:05:50;100320.38;;;3.77;100.00
5595;BME280;1003;48.002;7.788;2023-11-22T09:08:18;100319.19;;;3.91;100.00
5595;BME280;1003;48.002;7.788;2023-11-22T09:10:46;100323.22;;;3.88;100.00
5595;BME280;1003;48.002;7.788;2023-11-22T09:13:13;100324.63;;;3.81;100.00
5595;BME280;1003;48.002;7.788;2023-11-22T09:15:45;100312.16;;;3.80;100.00
5595;BME280;1003;48.002;7.788;2023-11-22T09:18:14;100321.44;;;3.84;100.00
5595;BME280;1003;48.002;7.788;2023-11-22T09:20:42;100313.16;;;3.85;100.00
5595;BME280;1003;48.002;7.788;2023-11-22T09:23:10;100317.00;;;3.99;100.00
5595;BME280;1003;48.002;7.788;2023-11-22T09:25:37;100308.03;;;3.80;100.00
5595;BME280;1003;48.002;7.788;2023-11-22T09:28:04;100304.84;;;3.84;100.00
5595;BME280;1003;48.002;7.788;2023-11-22T09:30:33;100289.22;;;3.64;100.00
5595;BME280;1003;48.002;7.788;2023-11-22T09:33:02;100292.22;;;3.78;100.00
5595;BME280;1003;48.002;7.788;2023-11-22T09:35:31;100272.50;;;3.83;100.00
5595;BME280;1003;48.002;7.788;2023-11-22T09:37:59;100262.59;;;3.84;100.00
5595;BME280;1003;48.002;7.788;2023-11-22T09:40:26;100254.31;;;3.85;100.00
5595;BME280;1003;48.002;7.788;2023-11-22T09:42:55;100237.22;;;3.94;100.00
5595;BME280;1003;48.002;7.788;2023-11-22T09:45:23;100239.41;;;3.85;100.00
5595;BME280;1003;48.002;7.788;2023-11-22T09:47:51;100237.41;;;3.75;100.00
5595;BME280;1003;48.002;7.788;2023-11-22T09:50:26;100235.75;;;3.76;100.00
5595;BME280;1003;48.002;7.788;2023-11-22T09:53:02;100232.75;;;3.84;100.00
5595;BME280;1003;48.002;7.788;2023-11-22T09:55:31;100242.38;;;3.99;100.00
5595;BME280;1003;48.002;7.788;2023-11-22T09:57:59;100248.06;;;3.97;100.00
5595;BME280;1003;48.002;7.788;2023-11-22T10:00:28;100241.81;;;3.82;100.00
5595;BME280;1003;48.002;7.788;2023-11-22T10:02:56;100241.88;;;3.85;100.00
5595;BME280;1003;48.002;7.788;2023-11-22T10:05:23;100242.88;;;3.90;100.00
5595;BME280;1003;48.002;7.788;2023-11-22T10:07:54;100246.34;;;3.94;100.00
5595;BME280;1003;48.002;7.788;2023-11-22T10:10:23;100252.00;;;3.90;100.00
5595;BME280;1003;48.002;7.788;2023-11-22T10:12:54;100227.59;;;3.80;100.00
5595;BME280;1003;48.002;7.788;2023-11-22T10:15:23;100231.50;;;3.97;100.00
5595;BME280;1003;48.002;7.788;2023-11-22T10:17:56;100225.53;;;4.17;100.00
5595;BME280;1003;48.002;7.788;2023-11-22T10:20:24;100217.41;;;4.21;100.00
5595;BME280;1003;48.002;7.788;2023-11-22T10:22:52;100207.97;;;4.13;100.00
5595;BME280;1003;48.002;7.788;2023-11-22T10:25:20;100198.94;;;4.15;100.00
5595;BME280;1003;48.002;7.788;2023-11-22T10:27:50;100228.19;;;4.47;100.00
5595;BME280;1003;48.002;7.788;2023-11-22T10:30:18;100212.44;;;4.48;100.00
5595;BME280;1003;48.002;7.788;2023-11-22T10:32:45;100207.13;;;4.65;100.00
5595;BME280;1003;48.002;7.788;2023-11-22T10:35:12;100211.97;;;4.89;100.00
5595;BME280;1003;48.002;7.788;2023-11-22T10:37:42;100205.44;;;4.64;100.00
5595;BME280;1003;48.002;7.788;2023-11-22T10:40:12;100215.41;;;4.37;100.00
5595;BME280;1003;48.002;7.788;2023-11-22T10:42:41;100207.75;;;4.58;100.00
5595;BME280;1003;48.002;7.788;2023-11-22T10:45:11;100213.09;;;4.70;100.00
5595;BME280;1003;48.002;7.788;2023-11-22T10:47:39;100214.00;;;4.46;100.00
5595;BME280;1003;48.002;7.788;2023-11-22T10:50:09;100216.16;;;4.36;100.00
5595;BME280;1003;48.002;7.788;2023-11-22T10:52:42;100216.59;;;4.22;100.00
5595;BME280;1003;48.002;7.788;2023-11-22T10:55:14;100215.69;;;4.20;100.00
5595;BME280;1003;48.002;7.788;2023-11-22T10:57:46;100218.63;;;4.09;100.00
5595;BME280;1003;48.002;7.788;2023-11-22T11:00:19;100233.50;;;4.07;100.00
5595;BME280;1003;48.002;7.788;2023-11-22T11:02:55;100233.94;;;3.95;100.00
5595;BME280;1003;48.002;7.788;2023-11-22T11:05:30;100237.28;;;3.96;100.00
5595;BME280;1003;48.002;7.788;2023-11-22T11:08:07;100232.66;;;4.07;100.00
5595;BME280;1003;48.002;7.788;2023-11-22T11:10:39;100236.09;;;4.10;100.00
5595;BME280;1003;48.002;7.788;2023-11-22T11:13:07;100243.28;;;4.03;100.00
5595;BME280;1003;48.002;7.788;2023-11-22T11:15:36;100225.59;;;3.93;100.00
5595;BME280;1003;48.002;7.788;2023-11-22T11:18:06;100251.34;;;3.95;100.00
5595;BME280;1003;48.002;7.788;2023-11-22T11:20:45;100247.66;;;3.84;100.00
5595;BME280;1003;48.002;7.788;2023-11-22T11:23:14;100250.84;;;3.80;100.00
5595;BME280;1003;48.002;7.788;2023-11-22T11:25:41;100261.81;;;3.87;100.00
5595;BME280;1003;48.002;7.788;2023-11-22T11:28:10;100251.75;;;3.82;100.00
5595;BME280;1003;48.002;7.788;2023-11-22T11:30:44;100048.22;;;3.94;100.00
5595;BME280;1003;48.002;7.788;2023-11-22T11:33:13;100040.66;;;3.91;100.00
5595;BME280;1003;48.002;7.788;2023-11-22T11:35:47;100043.06;;;3.88;100.00
5595;BME280;1003;48.002;7.788;2023-11-22T11:38:16;100047.28;;;3.91;100.00
5595;BME280;1003;48.002;7.788;2023-11-22T11:40:45;100052.94;;;3.87;100.00
5595;BME280;1003;48.002;7.788;2023-11-22T11:43:13;100054.78;;;3.92;100.00
5595;BME280;1003;48.002;7.788;2023-11-22T11:45:43;100063.28;;;3.99;100.00
5595;BME280;1003;48.002;7.788;2023-11-22T11:48:13;100062.19;;;4.18;100.00
5595;BME280;1003;48.002;7.788;2023-11-22T11:50:40;100075.53;;;4.20;100.00
5595;BME280;1003;48.002;7.788;2023-11-22T11:53:08;100096.50;;;4.01;100.00
5595;BME280;1003;48.002;7.788;2023-11-22T11:55:36;100101.97;;;3.91;100.00
5595;BME280;1003;48.002;7.788;2023-11-22T11:58:07;100099.34;;;3.86;100.00
5595;BME280;1003;48.002;7.788;2023-11-22T12:00:36;100104.81;;;4.02;100.00
5595;BME280;1003;48.002;7.788;2023-11-22T12:03:07;100111.03;;;3.89;100.00
5595;BME280;1003;48.002;7.788;2023-11-22T12:05:36;100095.69;;;4.02;100.00
5595;BME280;1003;48.002;7.788;2023-11-22T12:08:04;100110.94;;;3.86;100.00
5595;BME280;1003;48.002;7.788;2023-11-22T12:10:31;100096.81;;;3.85;100.00
5595;BME280;1003;48.002;7.788;2023-11-22T12:12:58;100112.09;;;3.70;100.00
5595;BME280;1003;48.002;7.788;2023-11-22T12:15:25;100124.94;;;3.57;100.00
5595;BME280;1003;48.002;7.788;2023-11-22T12:17:54;100135.22;;;3.67;100.00
5595;BME280;1003;48.002;7.788;2023-11-22T12:20:24;100146.97;;;3.72;100.00
5595;BME280;1003;48.002;7.788;2023-11-22T12:22:52;100156.03;;;3.71;100.00
5595;BME280;1003;48.002;7.788;2023-11-22T12:25:19;100162.56;;;3.67;100.00
5595;BME280;1003;48.002;7.788;2023-11-22T12:27:47;100177.97;;;3.57;100.00
5595;BME280;1003;48.002;7.788;2023-11-22T12:30:31;100161.53;;;3.61;100.00
5595;BME280;1003;48.002;7.788;2023-11-22T12:33:04;100178.53;;;3.74;100.00
5595;BME280;1003;48.002;7.788;2023-11-22T12:35:33;100183.25;;;3.66;100.00
5595;BME280;1003;48.002;7.788;2023-11-22T12:38:02;100196.56;;;3.68;100.00
5595;BME280;1003;48.002;7.788;2023-11-22T12:40:31;100199.50;;;3.57;100.00
5595;BME280;1003;48.002;7.788;2023-11-22T12:42:59;100192.03;;;3.57;100.00
5595;BME280;1003;48.002;7.788;2023-11-22T12:45:28;100194.53;;;3.57;100.00
5595;BME280;1003;48.002;7.788;2023-11-22T12:47:56;100205.78;;;3.47;100.00
5595;BME280;1003;48.002;7.788;2023-11-22T12:50:33;100212.00;;;3.60;100.00
5595;BME280;1003;48.002;7.788;2023-11-22T12:53:08;100200.06;;;3.50;100.00
5595;BME280;1003;48.002;7.788;2023-11-22T12:55:38;100195.25;;;3.54;100.00
5595;BME280;1003;48.002;7.788;2023-11-22T12:58:05;100195.31;;;3.56;100.00
5595;BME280;1003;48.002;7.788;2023-11-22T13:00:33;100206.03;;;3.55;100.00
5595;BME280;1003;48.002;7.788;2023-11-22T13:03:00;100213.44;;;3.53;100.00
5595;BME280;1003;48.002;7.788;2023-11-22T13:05:27;100201.81;;;3.52;100.00
5595;BME280;1003;48.002;7.788;2023-11-22T13:07:55;100202.97;;;3.62;100.00
5595;BME280;1003;48.002;7.788;2023-11-22T13:10:22;100194.94;;;3.69;100.00
5595;BME280;1003;48.002;7.788;2023-11-22T13:12:52;100207.69;;;3.78;100.00
5595;BME280;1003;48.002;7.788;2023-11-22T13:15:20;100215.63;;;3.68;100.00